createdAt,value
2022-11-16T00:01:12.885Z,100.00
2022-11-16T00:03:59.931Z,100.00
2022-11-16T00:06:46.345Z,100.00
2022-11-16T00:09:32.715Z,100.00
2022-11-16T00:12:17.986Z,100.00
2022-11-16T00:15:04.362Z,100.00
2022-11-16T00:17:49.838Z,100.00
2022-11-16T00:20:37.913Z,100.00
2022-11-16T00:23:24.240Z,99.73
2022-11-16T00:26:12.662Z,99.03
2022-11-16T00:28:57.817Z,99.24
2022-11-16T00:31:44.404Z,99.80
2022-11-16T00:34:30.088Z,99.34
2022-11-16T00:37:15.206Z,99.14
2022-11-16T00:40:00.620Z,98.67
2022-11-16T00:42:46.011Z,99.46
2022-11-16T00:45:31.321Z,99.47
2022-11-16T00:48:16.466Z,99.36
2022-11-16T00:51:01.650Z,98.34
2022-11-16T00:53:47.423Z,99.01
2022-11-16T00:56:32.900Z,98.78
2022-11-16T00:59:18.044Z,98.71
2022-11-16T01:02:03.633Z,98.83
2022-11-16T01:04:48.878Z,98.71
2022-11-16T01:07:38.930Z,98.77
2022-11-16T01:10:26.034Z,98.73
2022-11-16T01:13:11.734Z,98.82
2022-11-16T01:15:56.867Z,99.08
2022-11-16T01:18:43.842Z,99.16
2022-11-16T01:21:29.097Z,99.47
2022-11-16T01:24:14.679Z,99.49
2022-11-16T01:27:00.024Z,98.54
2022-11-16T01:29:49.314Z,98.52
2022-11-16T01:32:35.780Z,98.24
2022-11-16T01:35:21.843Z,98.30
2022-11-16T01:38:07.274Z,98.10
2022-11-16T01:40:53.380Z,98.04
2022-11-16T01:44:03.570Z,98.02
2022-11-16T01:46:55.545Z,98.51
2022-11-16T01:49:55.150Z,98.19
2022-11-16T01:52:53.989Z,98.62
2022-11-16T01:55:43.180Z,98.82
2022-11-16T01:58:35.189Z,98.77
2022-11-16T02:01:31.549Z,98.68
2022-11-16T02:04:19.485Z,98.67
2022-11-16T02:07:23.481Z,98.64
2022-11-16T02:10:55.747Z,99.32
2022-11-16T02:14:13.245Z,99.00
2022-11-16T02:17:19.618Z,99.83
2022-11-16T02:20:12.016Z,99.35
2022-11-16T02:23:09.495Z,99.90
2022-11-16T02:26:38.008Z,98.79
2022-11-16T02:29:37.862Z,99.23
2022-11-16T02:32:30.610Z,99.24
2022-11-16T02:35:25.439Z,99.30
2022-11-16T02:38:32.714Z,99.50
2022-11-16T02:41:22.178Z,99.22
2022-11-16T02:44:15.656Z,99.88
2022-11-16T02:47:11.349Z,99.24
2022-11-16T02:50:02.109Z,98.98
2022-11-16T02:52:47.584Z,99.12
2022-11-16T02:55:35.990Z,99.36
2022-11-16T02:58:25.317Z,99.57
2022-11-16T03:01:18.265Z,99.53
2022-11-16T03:04:12.001Z,99.11
2022-11-16T03:07:01.929Z,99.34
2022-11-16T03:09:50.133Z,100.00
2022-11-16T03:12:37.998Z,99.42
2022-11-16T03:15:24.063Z,99.40
2022-11-16T03:18:12.238Z,99.47
2022-11-16T03:21:06.825Z,99.90
2022-11-16T03:23:52.242Z,99.88
2022-11-16T03:26:51.090Z,99.12
2022-11-16T03:30:11.379Z,98.80
2022-11-16T03:33:07.258Z,98.91
2022-11-16T03:36:00.536Z,98.50
2022-11-16T03:38:50.781Z,99.06
2022-11-16T03:41:39.898Z,97.86
2022-11-16T03:44:26.694Z,98.37
2022-11-16T03:47:13.355Z,98.72
2022-11-16T03:49:58.989Z,97.81
2022-11-16T03:52:44.332Z,97.98
2022-11-16T03:55:31.091Z,98.04
2022-11-16T03:58:18.549Z,99.44
2022-11-16T04:01:04.441Z,99.30
2022-11-16T04:03:49.621Z,99.86
2022-11-16T04:06:56.196Z,100.00
2022-11-16T04:10:00.415Z,100.00
2022-11-16T04:13:04.564Z,100.00
2022-11-16T04:16:08.256Z,100.00
2022-11-16T04:19:11.824Z,100.00
2022-11-16T04:22:32.222Z,100.00
2022-11-16T04:25:23.176Z,100.00
2022-11-16T04:28:16.237Z,100.00
2022-11-16T04:31:25.749Z,100.00
2022-11-16T04:34:38.242Z,100.00
2022-11-16T04:37:42.522Z,100.00
2022-11-16T04:40:29.493Z,100.00
2022-11-16T04:43:15.567Z,100.00
2022-11-16T04:46:41.319Z,100.00
2022-11-16T04:49:27.148Z,100.00
2022-11-16T04:52:14.856Z,100.00
2022-11-16T04:55:01.820Z,100.00
2022-11-16T04:57:47.769Z,100.00
2022-11-16T05:00:33.810Z,100.00
2022-11-16T05:03:19.487Z,100.00
2022-11-16T05:06:05.327Z,100.00
2022-11-16T05:08:51.432Z,100.00
2022-11-16T05:11:36.779Z,100.00
2022-11-16T05:14:22.097Z,100.00
2022-11-16T05:17:08.423Z,100.00
2022-11-16T05:20:12.887Z,100.00
2022-11-16T05:23:05.794Z,100.00
2022-11-16T05:25:55.077Z,100.00
2022-11-16T05:28:41.074Z,100.00
2022-11-16T05:31:28.867Z,100.00
2022-11-16T05:34:14.930Z,100.00
2022-11-16T05:37:00.926Z,100.00
2022-11-16T05:39:48.199Z,100.00
2022-11-16T05:42:35.019Z,100.00
2022-11-16T05:45:21.303Z,100.00
2022-11-16T05:48:07.628Z,100.00
2022-11-16T05:50:58.609Z,100.00
2022-11-16T05:53:44.652Z,100.00
2022-11-16T05:56:34.932Z,100.00
2022-11-16T05:59:22.904Z,100.00
2022-11-16T06:02:11.546Z,100.00
2022-11-16T06:04:57.087Z,100.00
2022-11-16T06:07:42.500Z,100.00
2022-11-16T06:10:27.514Z,100.00
2022-11-16T06:13:13.061Z,100.00
2022-11-16T06:15:59.581Z,100.00
2022-11-16T06:18:47.310Z,100.00
2022-11-16T06:21:34.219Z,100.00
2022-11-16T06:24:22.244Z,100.00
2022-11-16T06:27:07.432Z,100.00
2022-11-16T06:29:54.436Z,100.00
2022-11-16T06:32:40.271Z,100.00
2022-11-16T06:35:26.382Z,100.00
2022-11-16T06:38:18.229Z,100.00
2022-11-16T06:41:05.127Z,100.00
2022-11-16T06:43:55.862Z,100.00
2022-11-16T06:46:47.049Z,100.00
2022-11-16T06:49:32.191Z,100.00
2022-11-16T06:52:20.852Z,100.00
2022-11-16T06:55:06.895Z,100.00
2022-11-16T06:57:54.153Z,100.00
2022-11-16T07:00:39.773Z,100.00
2022-11-16T07:03:26.869Z,100.00
2022-11-16T07:06:13.646Z,100.00
2022-11-16T07:09:05.968Z,100.00
2022-11-16T07:11:51.383Z,100.00
2022-11-16T07:14:38.421Z,100.00
2022-11-16T07:17:26.595Z,100.00
2022-11-16T07:20:12.199Z,100.00
2022-11-16T07:23:02.846Z,100.00
2022-11-16T07:25:47.931Z,100.00
2022-11-16T07:28:47.749Z,100.00
2022-11-16T07:31:34.589Z,100.00
2022-11-16T07:34:42.403Z,100.00
2022-11-16T07:37:31.775Z,100.00
2022-11-16T07:40:17.282Z,100.00
2022-11-16T07:43:03.933Z,100.00
2022-11-16T07:46:21.321Z,100.00
2022-11-16T07:49:09.872Z,100.00
2022-11-16T07:52:10.685Z,100.00
2022-11-16T07:55:16.182Z,100.00
2022-11-16T07:58:03.316Z,100.00
2022-11-16T08:00:49.211Z,100.00
2022-11-16T08:03:35.737Z,100.00
2022-11-16T08:06:25.857Z,100.00
2022-11-16T08:09:13.857Z,100.00
2022-11-16T08:11:59.833Z,100.00
2022-11-16T08:14:45.402Z,100.00
2022-11-16T08:17:32.155Z,100.00
2022-11-16T08:20:18.117Z,100.00
2022-11-16T08:23:03.490Z,100.00
2022-11-16T08:25:52.648Z,100.00
2022-11-16T08:28:38.188Z,100.00
2022-11-16T08:31:26.623Z,100.00
2022-11-16T08:34:17.505Z,100.00
2022-11-16T08:37:08.316Z,100.00
2022-11-16T08:40:03.108Z,100.00
2022-11-16T08:42:51.653Z,100.00
2022-11-16T08:45:38.382Z,100.00
2022-11-16T08:48:23.927Z,100.00
2022-11-16T08:51:17.835Z,100.00
2022-11-16T08:54:09.437Z,100.00
2022-11-16T08:56:57.263Z,100.00
2022-11-16T08:59:42.766Z,100.00
2022-11-16T09:02:31.812Z,100.00
2022-11-16T09:05:17.160Z,100.00
2022-11-16T09:08:02.538Z,100.00
2022-11-16T09:10:48.121Z,100.00
2022-11-16T09:13:33.631Z,100.00
2022-11-16T09:16:20.907Z,100.00
2022-11-16T09:19:06.172Z,100.00
2022-11-16T09:21:51.567Z,100.00
2022-11-16T09:24:37.209Z,100.00
2022-11-16T09:27:22.714Z,100.00
2022-11-16T09:30:09.369Z,100.00
2022-11-16T09:32:54.952Z,99.63
2022-11-16T09:35:40.431Z,98.64
2022-11-16T09:38:40.313Z,100.00
2022-11-16T09:42:02.680Z,100.00
2022-11-16T09:45:08.421Z,100.00
2022-11-16T09:47:59.361Z,100.00
2022-11-16T09:51:02.682Z,97.64
2022-11-16T09:53:58.463Z,91.21
2022-11-16T09:56:47.524Z,91.68
2022-11-16T09:59:40.946Z,91.73
2022-11-16T10:02:38.941Z,92.77
2022-11-16T10:05:31.334Z,93.54
2022-11-16T10:08:48.449Z,94.00
2022-11-16T10:11:55.114Z,93.95
2022-11-16T10:15:01.669Z,94.77
2022-11-16T10:18:18.465Z,94.73
2022-11-16T10:21:23.539Z,94.42
2022-11-16T10:24:25.845Z,93.81
2022-11-16T10:28:17.304Z,94.30
2022-11-16T10:31:18.079Z,94.18
2022-11-16T10:34:08.889Z,94.39
2022-11-16T10:36:58.589Z,94.56
2022-11-16T10:39:46.892Z,93.98
2022-11-16T10:42:37.153Z,94.14
2022-11-16T10:45:30.341Z,93.48
2022-11-16T10:48:42.509Z,94.12
2022-11-16T10:51:27.769Z,93.65
2022-11-16T10:54:17.976Z,93.51
2022-11-16T10:57:13.939Z,93.67
2022-11-16T10:59:59.603Z,93.60
2022-11-16T11:02:48.440Z,92.80
2022-11-16T11:05:36.127Z,92.21
2022-11-16T11:08:31.470Z,92.56
2022-11-16T11:11:40.722Z,92.49
2022-11-16T11:14:26.107Z,92.76
2022-11-16T11:17:14.104Z,91.79
2022-11-16T11:20:16.933Z,91.60
2022-11-16T11:23:12.361Z,90.61
2022-11-16T11:26:00.186Z,91.19
2022-11-16T11:28:49.272Z,90.49
2022-11-16T11:31:46.270Z,90.76
2022-11-16T11:34:41.707Z,90.83
2022-11-16T11:37:31.684Z,91.00
2022-11-16T11:40:20.082Z,90.55
2022-11-16T11:43:06.400Z,90.14
2022-11-16T11:46:04.058Z,90.40
2022-11-16T11:49:04.701Z,90.01
2022-11-16T11:51:52.081Z,90.09
2022-11-16T11:54:47.615Z,89.96
2022-11-16T11:57:38.770Z,90.30
2022-11-16T12:00:25.995Z,89.88
2022-11-16T12:03:38.374Z,90.51
2022-11-16T12:06:38.732Z,90.87
2022-11-16T12:09:46.178Z,90.72
2022-11-16T12:12:59.458Z,90.13
2022-11-16T12:15:59.197Z,89.57
2022-11-16T12:18:53.693Z,90.30
2022-11-16T12:21:59.219Z,90.21
2022-11-16T12:25:18.761Z,90.23
2022-11-16T12:28:25.911Z,90.72
2022-11-16T12:31:39.193Z,90.67
2022-11-16T12:35:00.745Z,90.20
2022-11-16T12:38:15.302Z,90.32
2022-11-16T12:41:39.897Z,89.90
2022-11-16T12:44:50.896Z,90.08
2022-11-16T12:48:03.559Z,89.89
2022-11-16T12:51:04.048Z,89.54
2022-11-16T12:54:15.842Z,89.35
2022-11-16T12:57:26.552Z,89.09
2022-11-16T13:00:16.736Z,89.56
2022-11-16T13:03:17.905Z,89.56
2022-11-16T13:06:08.445Z,89.50
2022-11-16T13:09:11.016Z,89.17
2022-11-16T13:12:14.064Z,89.42
2022-11-16T13:15:02.847Z,88.29
2022-11-16T13:17:55.008Z,88.51
2022-11-16T13:20:45.926Z,88.28
2022-11-16T13:23:31.288Z,87.96
2022-11-16T13:26:19.810Z,87.66
2022-11-16T13:29:34.025Z,87.54
2022-11-16T13:32:39.493Z,87.77
2022-11-16T13:35:25.432Z,87.32
2022-11-16T13:38:13.774Z,87.33
2022-11-16T13:41:33.510Z,87.64
2022-11-16T13:44:20.059Z,87.09
2022-11-16T13:47:30.368Z,87.40
2022-11-16T13:50:23.086Z,87.16
2022-11-16T13:54:10.862Z,86.79
2022-11-16T13:56:25.614Z,86.08
2022-11-16T13:59:16.686Z,86.74
2022-11-16T14:02:23.636Z,85.80
2022-11-16T14:05:12.069Z,86.48
2022-11-16T14:07:57.758Z,86.11
2022-11-16T14:10:48.982Z,85.61
2022-11-16T14:13:37.464Z,86.08
2022-11-16T14:16:22.963Z,85.82
2022-11-16T14:19:44.256Z,86.18
2022-11-16T14:22:52.578Z,85.20
2022-11-16T14:25:40.379Z,86.11
2022-11-16T14:28:44.945Z,86.50
2022-11-16T14:31:45.150Z,86.18
2022-11-16T14:34:41.740Z,86.61
2022-11-16T14:37:30.414Z,86.48
2022-11-16T14:40:18.412Z,87.16
2022-11-16T14:43:17.045Z,87.52
2022-11-16T14:46:08.485Z,88.00
2022-11-16T14:48:56.418Z,88.52
2022-11-16T14:51:49.108Z,88.79
2022-11-16T14:54:40.488Z,90.31
2022-11-16T14:57:26.280Z,89.91
2022-11-16T15:00:20.131Z,90.86
2022-11-16T15:03:06.526Z,90.23
2022-11-16T15:05:51.809Z,90.44
2022-11-16T15:08:42.086Z,90.88
2022-11-16T15:11:52.224Z,91.00
2022-11-16T15:14:44.353Z,91.42
2022-11-16T15:17:33.217Z,91.24
2022-11-16T15:20:23.767Z,90.97
2022-11-16T15:23:15.153Z,91.42
2022-11-16T15:26:02.318Z,91.59
2022-11-16T15:28:50.286Z,91.38
2022-11-16T15:31:36.983Z,91.31
2022-11-16T15:34:22.515Z,91.15
2022-11-16T15:37:12.156Z,90.15
2022-11-16T15:40:09.801Z,90.75
2022-11-16T15:43:00.323Z,91.05
2022-11-16T15:45:46.649Z,90.80
2022-11-16T15:48:33.478Z,91.01
2022-11-16T15:51:24.240Z,90.80
2022-11-16T15:54:30.648Z,89.99
2022-11-16T15:57:15.925Z,89.47
2022-11-16T16:00:01.418Z,89.46
2022-11-16T16:02:46.876Z,89.16
2022-11-16T16:05:39.828Z,89.21
2022-11-16T16:08:37.389Z,88.47
2022-11-16T16:11:26.779Z,88.40
2022-11-16T16:14:24.544Z,88.42
2022-11-16T16:17:20.803Z,88.46
2022-11-16T16:20:07.562Z,87.92
2022-11-16T16:22:54.443Z,86.98
2022-11-16T16:25:39.761Z,86.92
2022-11-16T16:28:25.028Z,86.15
2022-11-16T16:31:11.376Z,86.39
2022-11-16T16:33:56.805Z,85.96
2022-11-16T16:36:42.131Z,86.66
2022-11-16T16:39:27.472Z,86.87
2022-11-16T16:42:15.628Z,86.76
2022-11-16T16:45:02.176Z,87.25
2022-11-16T16:47:47.849Z,86.99
2022-11-16T16:50:33.521Z,87.41
2022-11-16T16:53:18.844Z,86.86
2022-11-16T16:56:04.502Z,87.09
2022-11-16T16:58:50.040Z,87.16
2022-11-16T17:01:35.749Z,86.41
2022-11-16T17:04:21.540Z,85.35
2022-11-16T17:07:07.181Z,85.71
2022-11-16T17:09:52.633Z,85.36
2022-11-16T17:12:37.875Z,85.05
2022-11-16T17:15:24.067Z,84.76
2022-11-16T17:18:09.365Z,84.56
2022-11-16T17:20:54.699Z,84.05
2022-11-16T17:23:40.012Z,84.24
2022-11-16T17:26:29.095Z,84.05
2022-11-16T17:29:14.953Z,84.43
2022-11-16T17:32:00.699Z,84.52
2022-11-16T17:34:46.223Z,84.32
2022-11-16T17:37:32.019Z,85.15
2022-11-16T17:40:17.588Z,84.81
2022-11-16T17:43:03.277Z,84.71
2022-11-16T17:45:48.657Z,84.90
2022-11-16T17:48:35.297Z,84.44
2022-11-16T17:51:23.724Z,84.40
2022-11-16T17:54:09.087Z,84.24
2022-11-16T17:56:54.713Z,84.24
2022-11-16T17:59:39.789Z,84.37
2022-11-16T18:02:25.020Z,84.40
2022-11-16T18:05:10.184Z,84.48
2022-11-16T18:07:57.877Z,84.10
2022-11-16T18:10:43.249Z,84.64
2022-11-16T18:13:28.326Z,85.09
2022-11-16T18:16:16.535Z,84.99
2022-11-16T18:19:04.385Z,84.61
2022-11-16T18:21:49.478Z,83.91
2022-11-16T18:24:34.976Z,83.44
2022-11-16T18:27:20.295Z,83.76
2022-11-16T18:30:05.996Z,83.65
2022-11-16T18:32:51.145Z,83.39
2022-11-16T18:35:36.102Z,83.72
2022-11-16T18:38:22.076Z,83.13
2022-11-16T18:41:13.506Z,82.79
2022-11-16T18:44:01.231Z,81.97
2022-11-16T18:46:46.660Z,81.72
2022-11-16T18:49:32.043Z,81.58
2022-11-16T18:52:17.109Z,81.21
2022-11-16T18:55:02.481Z,80.96
2022-11-16T18:57:47.769Z,80.76
2022-11-16T19:00:33.241Z,80.77
2022-11-16T19:03:18.705Z,80.79
2022-11-16T19:06:07.529Z,80.51
2022-11-16T19:08:58.585Z,80.77
2022-11-16T19:11:43.705Z,80.22
2022-11-16T19:14:29.019Z,80.53
2022-11-16T19:17:14.398Z,80.06
2022-11-16T19:19:59.768Z,80.14
2022-11-16T19:22:44.823Z,80.40
2022-11-16T19:25:30.248Z,80.65
2022-11-16T19:28:15.427Z,79.54
2022-11-16T19:31:08.259Z,79.38
2022-11-16T19:33:59.788Z,79.60
2022-11-16T19:36:44.889Z,79.32
2022-11-16T19:39:30.403Z,79.73
2022-11-16T19:42:15.754Z,79.49
2022-11-16T19:45:01.242Z,79.02
2022-11-16T19:47:46.655Z,78.40
2022-11-16T19:50:31.753Z,78.53
2022-11-16T19:53:17.018Z,79.10
2022-11-16T19:56:03.592Z,79.27
2022-11-16T19:58:49.117Z,79.55
2022-11-16T20:01:34.590Z,78.95
2022-11-16T20:04:19.750Z,78.59
2022-11-16T20:07:07.364Z,79.34
2022-11-16T20:09:54.525Z,79.72
2022-11-16T20:12:39.590Z,79.21
2022-11-16T20:15:25.665Z,78.77
2022-11-16T20:18:10.871Z,78.92
2022-11-16T20:21:00.894Z,78.90
2022-11-16T20:23:45.972Z,79.14
2022-11-16T20:26:33.406Z,78.64
2022-11-16T20:29:19.201Z,78.89
2022-11-16T20:32:04.579Z,78.89
2022-11-16T20:34:49.761Z,78.63
2022-11-16T20:37:35.018Z,78.45
2022-11-16T20:40:20.575Z,78.19
2022-11-16T20:43:06.043Z,78.38
2022-11-16T20:45:52.630Z,78.67
2022-11-16T20:48:39.338Z,78.88
2022-11-16T20:51:24.785Z,78.99
2022-11-16T20:54:10.072Z,78.22
2022-11-16T20:56:55.612Z,78.55
2022-11-16T20:59:40.866Z,77.85
2022-11-16T21:02:26.014Z,78.53
2022-11-16T21:05:13.577Z,78.08
2022-11-16T21:07:59.481Z,77.79
2022-11-16T21:10:45.461Z,78.12
2022-11-16T21:13:49.221Z,78.18
2022-11-16T21:16:34.709Z,77.74
2022-11-16T21:19:19.826Z,77.80
2022-11-16T21:22:05.219Z,77.72
2022-11-16T21:24:50.644Z,77.79
2022-11-16T21:27:36.061Z,77.79
2022-11-16T21:30:21.653Z,77.90
2022-11-16T21:33:06.743Z,77.13
2022-11-16T21:35:54.260Z,77.15
2022-11-16T21:38:39.484Z,77.32
2022-11-16T21:41:25.746Z,77.27
2022-11-16T21:44:11.342Z,77.45
2022-11-16T21:46:56.901Z,77.30
2022-11-16T21:50:08.328Z,77.77
2022-11-16T21:52:48.207Z,77.25
2022-11-16T21:55:41.543Z,76.72
2022-11-16T21:58:27.430Z,77.37
2022-11-16T22:01:17.375Z,76.94
2022-11-16T22:04:20.988Z,77.69
2022-11-16T22:07:24.826Z,77.45
2022-11-16T22:10:12.933Z,77.34
2022-11-16T22:13:03.411Z,77.30
2022-11-16T22:15:56.325Z,77.00
2022-11-16T22:18:42.206Z,77.16
2022-11-16T22:21:29.738Z,77.21
2022-11-16T22:24:19.361Z,77.14
2022-11-16T22:27:27.201Z,77.84
2022-11-16T22:30:12.662Z,77.30
2022-11-16T22:32:57.916Z,77.28
2022-11-16T22:35:45.649Z,77.01
2022-11-16T22:38:31.314Z,77.33
2022-11-16T22:41:16.438Z,77.09
2022-11-16T22:44:04.443Z,77.10
2022-11-16T22:46:52.654Z,76.96
2022-11-16T22:49:41.219Z,77.00
2022-11-16T22:52:26.722Z,77.79
2022-11-16T22:55:12.377Z,77.73
2022-11-16T22:57:57.542Z,77.32
2022-11-16T23:00:42.962Z,77.69
2022-11-16T23:03:29.148Z,77.08
2022-11-16T23:06:15.060Z,77.37
2022-11-16T23:09:00.285Z,77.06
2022-11-16T23:12:03.899Z,77.57
2022-11-16T23:15:07.867Z,77.13
2022-11-16T23:17:53.226Z,77.73
2022-11-16T23:20:57.423Z,77.79
2022-11-16T23:24:01.246Z,77.74
2022-11-16T23:27:05.118Z,77.24
2022-11-16T23:29:50.289Z,78.36
2022-11-16T23:32:35.706Z,77.79
2022-11-16T23:35:21.292Z,77.94
2022-11-16T23:38:07.511Z,78.34
2022-11-16T23:40:53.863Z,77.88
2022-11-16T23:43:57.837Z,78.00
2022-11-16T23:46:42.894Z,77.79
2022-11-16T23:49:27.741Z,77.96
2022-11-16T23:52:13.560Z,78.12
2022-11-16T23:54:59.034Z,78.14
2022-11-16T23:57:44.547Z,78.23
